Time,TemperatureF,DewpointF,PressureIn,WindDirection,WindDirectionDegrees,WindSpeedMPH,WindSpeedGustMPH,Humidity,HourlyPrecipIn,Conditions,Clouds,dailyrainin,SoftwareType,DateUTC
2013-09-26 00:14:00,43.0,41.0,30.03,NNE,13,0.0,-999.0,93,-99.99,,,-99.99,,2013-09-26 04:14:00,
2013-09-26 00:24:00,43.0,41.0,30.03,NNE,13,0.0,-999.0,93,-99.99,,,-99.99,,2013-09-26 04:24:00,
2013-09-26 00:54:00,42.0,40.0,30.04,NNE,12,0.0,-999.0,93,-99.99,,,-99.99,,2013-09-26 04:54:00,
2013-09-26 01:12:00,42.0,40.0,30.04,NNE,13,0.0,-999.0,93,-99.99,,,-99.99,,2013-09-26 05:12:00,
2013-09-26 01:23:00,43.0,41.0,30.04,NNE,12,0.0,-999.0,94,-99.99,,,-99.99,,2013-09-26 05:23:00,
2013-09-26 01:43:00,43.0,41.0,30.04,NNE,12,0.0,-999.0,93,-99.99,,,-99.99,,2013-09-26 05:43:00,
2013-09-26 01:52:00,43.0,41.0,30.05,North,10,0.0,-999.0,94,-99.99,,,-99.99,,2013-09-26 05:52:00,
2013-09-26 02:13:00,43.0,41.0,30.05,North,9,0.0,-999.0,94,-99.99,,,-99.99,,2013-09-26 06:13:00,
2013-09-26 02:22:00,43.0,41.0,30.05,North,9,0.0,-999.0,94,-99.99,,,-99.99,,2013-09-26 06:22:00,
2013-09-26 02:42:00,43.0,41.0,30.04,North,9,0.0,-999.0,94,-99.99,,,-99.99,,2013-09-26 06:42:00,
2013-09-26 02:53:00,43.0,41.0,30.04,North,9,0.0,-999.0,94,-99.99,,,-99.99,,2013-09-26 06:53:00,
2013-09-26 03:12:00,43.0,41.0,30.04,North,9,0.0,-999.0,94,-99.99,,,-99.99,,2013-09-26 07:12:00,
2013-09-26 03:22:00,43.0,41.0,30.05,North,9,0.0,-999.0,94,-99.99,,,-99.99,,2013-09-26 07:22:00,
2013-09-26 03:42:00,42.0,40.0,30.04,North,9,0.0,-999.0,93,-99.99,,,-99.99,,2013-09-26 07:42:00,
2013-09-26 03:53:00,42.0,40.0,30.04,North,9,0.0,-999.0,94,-99.99,,,-99.99,,2013-09-26 07:53:00,
2013-09-26 04:11:00,42.0,40.0,30.04,North,9,0.0,-999.0,94,-99.99,,,-99.99,,2013-09-26 08:11:00,
2013-09-26 04:22:00,42.0,40.0,30.04,North,9,0.0,-999.0,94,-99.99,,,-99.99,,2013-09-26 08:22:00,
2013-09-26 04:42:00,41.0,39.0,30.04,North,9,0.0,-999.0,94,-99.99,,,-99.99,,2013-09-26 08:42:00,
2013-09-26 04:52:00,41.0,39.0,30.04,North,9,0.0,-999.0,94,-99.99,,,-99.99,,2013-09-26 08:52:00,
2013-09-26 05:11:00,40.0,38.0,30.05,North,9,0.0,-999.0,94,-99.99,,,-99.99,,2013-09-26 09:11:00,
2013-09-26 05:22:00,41.0,39.0,30.05,North,9,0.0,-999.0,94,-99.99,,,-99.99,,2013-09-26 09:22:00,
2013-09-26 05:43:00,43.0,42.0,30.05,NNE,17,1.0,-999.0,95,-99.99,,,-99.99,,2013-09-26 09:43:00,
2013-09-26 05:54:00,45.0,44.0,30.05,NE,39,1.0,-999.0,95,-99.99,,,-99.99,,2013-09-26 09:54:00,
2013-09-26 06:12:00,46.0,45.0,30.05,NNE,33,2.0,-999.0,95,-99.99,,,-99.99,,2013-09-26 10:12:00,
2013-09-26 06:23:00,46.0,45.0,30.06,NNE,21,2.0,-999.0,95,-99.99,,,-99.99,,2013-09-26 10:23:00,
2013-09-26 06:42:00,46.0,44.0,30.05,NNE,13,4.0,-999.0,94,-99.99,,,-99.99,,2013-09-26 10:42:00,
2013-09-26 06:53:00,46.0,44.0,30.06,NE,35,4.0,-999.0,94,-99.99,,,-99.99,,2013-09-26 10:53:00,
2013-09-26 07:12:00,46.0,44.0,30.06,North,9,5.0,-999.0,94,-99.99,,,-99.99,,2013-09-26 11:12:00,
2013-09-26 07:22:00,46.0,44.0,30.07,NE,36,4.0,-999.0,94,-99.99,,,-99.99,,2013-09-26 11:22:00,
2013-09-26 07:42:00,46.0,44.0,30.07,NNE,19,4.0,-999.0,94,-99.99,,,-99.99,,2013-09-26 11:42:00,
2013-09-26 07:52:00,46.0,44.0,30.07,NNW,327,3.0,-999.0,94,-99.99,,,-99.99,,2013-09-26 11:52:00,
2013-09-26 08:02:00,46.0,44.0,30.07,NNW,327,3.0,-999.0,94,-99.99,,,-99.99,,2013-09-26 12:02:00,
2013-09-26 08:12:00,46.0,44.0,30.07,NNW,327,3.0,-999.0,94,-99.99,,,-99.99,,2013-09-26 12:12:00,
2013-09-26 08:22:00,46.0,44.0,30.08,NNE,23,2.0,-999.0,94,-99.99,,,-99.99,,2013-09-26 12:22:00,
2013-09-26 08:42:00,46.0,44.0,30.08,NNW,344,2.0,-999.0,94,-99.99,,,-99.99,,2013-09-26 12:42:00,
2013-09-26 08:52:00,46.0,44.0,30.08,NNE,12,3.0,-999.0,94,-99.99,,,-99.99,,2013-09-26 12:52:00,
2013-09-26 09:12:00,47.0,45.0,30.09,NNE,17,2.0,-999.0,94,-99.99,,,-99.99,,2013-09-26 13:12:00,
2013-09-26 09:22:00,47.0,45.0,30.09,NNW,348,4.0,-999.0,94,-99.99,,,-99.99,,2013-09-26 13:22:00,
2013-09-26 09:42:00,48.0,46.0,30.10,ENE,66,4.0,-999.0,93,-99.99,,,-99.99,,2013-09-26 13:42:00,
2013-09-26 09:52:00,49.0,46.0,30.10,NE,55,3.0,-999.0,91,-99.99,,,-99.99,,2013-09-26 13:52:00,
2013-09-26 10:11:00,50.0,46.0,30.10,East,98,4.0,-999.0,87,-99.99,,,-99.99,,2013-09-26 14:11:00,
2013-09-26 10:22:00,50.0,46.0,30.10,East,98,4.0,-999.0,87,-99.99,,,-99.99,,2013-09-26 14:22:00,
2013-09-26 10:42:00,51.0,46.0,30.11,NE,56,5.0,-999.0,84,-99.99,,,-99.99,,2013-09-26 14:42:00,
2013-09-26 10:52:00,52.0,47.0,30.11,NE,53,3.0,-999.0,83,-99.99,,,-99.99,,2013-09-26 14:52:00,
2013-09-26 11:11:00,53.0,47.0,30.11,ENE,72,5.0,-999.0,81,-99.99,,,-99.99,,2013-09-26 15:11:00,
2013-09-26 11:22:00,53.0,47.0,30.11,ENE,72,5.0,-999.0,81,-99.99,,,-99.99,,2013-09-26 15:22:00,
2013-09-26 11:44:00,55.0,48.0,30.11,NE,45,4.0,-999.0,78,-99.99,,,-99.99,,2013-09-26 15:44:00,
2013-09-26 11:54:00,54.0,48.0,30.11,East,94,4.0,-999.0,79,-99.99,,,-99.99,,2013-09-26 15:54:00,
2013-09-26 12:13:00,54.0,48.0,30.11,NE,45,3.0,-999.0,79,-99.99,,,-99.99,,2013-09-26 16:13:00,
2013-09-26 12:24:00,54.0,47.0,30.11,ENE,69,2.0,-999.0,78,-99.99,,,-99.99,,2013-09-26 16:24:00,
2013-09-26 12:43:00,54.0,47.0,30.11,ENE,63,2.0,-999.0,78,-99.99,,,-99.99,,2013-09-26 16:43:00,
2013-09-26 12:54:00,55.0,47.0,30.11,NNE,30,3.0,-999.0,75,-99.99,,,-99.99,,2013-09-26 16:54:00,
2013-09-26 13:12:00,56.0,47.0,30.11,North,355,2.0,-999.0,73,-99.99,,,-99.99,,2013-09-26 17:12:00,
2013-09-26 13:23:00,56.0,47.0,30.11,North,355,2.0,-999.0,73,-99.99,,,-99.99,,2013-09-26 17:23:00,
2013-09-26 13:53:00,59.0,48.0,30.11,North,11,3.0,-999.0,67,-99.99,,,-99.99,,2013-09-26 17:53:00,
2013-09-26 14:13:00,59.0,48.0,30.10,NE,42,3.0,-999.0,67,-99.99,,,-99.99,,2013-09-26 18:13:00,
2013-09-26 14:22:00,59.0,48.0,30.09,East,84,3.0,-999.0,66,-99.99,,,-99.99,,2013-09-26 18:22:00,
2013-09-26 14:42:00,59.0,48.0,30.10,NE,44,3.0,-999.0,66,-99.99,,,-99.99,,2013-09-26 18:42:00,
2013-09-26 14:52:00,59.0,47.0,30.09,NE,49,3.0,-999.0,64,-99.99,,,-99.99,,2013-09-26 18:52:00,
2013-09-26 15:12:00,60.0,47.0,30.09,North,5,3.0,-999.0,61,-99.99,,,-99.99,,2013-09-26 19:12:00,
2013-09-26 15:22:00,60.0,47.0,30.09,North,5,3.0,-999.0,61,-99.99,,,-99.99,,2013-09-26 19:22:00,
2013-09-26 15:52:00,61.0,47.0,30.09,ESE,113,3.0,-999.0,59,-99.99,,,-99.99,,2013-09-26 19:52:00,
2013-09-26 16:12:00,62.0,47.0,30.09,NNE,33,3.0,-999.0,58,-99.99,,,-99.99,,2013-09-26 20:12:00,
2013-09-26 16:23:00,62.0,48.0,30.09,NNE,15,4.0,-999.0,60,-99.99,,,-99.99,,2013-09-26 20:23:00,
2013-09-26 16:43:00,62.0,47.0,30.09,NE,42,3.0,-999.0,59,-99.99,,,-99.99,,2013-09-26 20:43:00,
2013-09-26 16:52:00,62.0,47.0,30.09,NE,43,3.0,-999.0,59,-99.99,,,-99.99,,2013-09-26 20:52:00,
2013-09-26 17:12:00,62.0,48.0,30.09,ESE,113,2.0,-999.0,61,-99.99,,,-99.99,,2013-09-26 21:12:00,
2013-09-26 17:23:00,62.0,48.0,30.10,NE,49,2.0,-999.0,61,-99.99,,,-99.99,,2013-09-26 21:23:00,
2013-09-26 17:44:00,59.0,47.0,30.10,NE,51,1.0,-999.0,65,-99.99,,,-99.99,,2013-09-26 21:44:00,
2013-09-26 17:54:00,60.0,49.0,30.10,NE,38,1.0,-999.0,66,-99.99,,,-99.99,,2013-09-26 21:54:00,
2013-09-26 18:14:00,60.0,48.0,30.11,NNE,30,1.0,-999.0,65,-99.99,,,-99.99,,2013-09-26 22:14:00,
2013-09-26 18:24:00,59.0,48.0,30.11,NNE,30,0.0,-999.0,66,-99.99,,,-99.99,,2013-09-26 22:24:00,
2013-09-26 18:43:00,57.0,47.0,30.11,NNE,30,0.0,-999.0,70,-99.99,,,-99.99,,2013-09-26 22:43:00,
2013-09-26 18:54:00,55.0,47.0,30.12,NNE,30,0.0,-999.0,75,-99.99,,,-99.99,,2013-09-26 22:54:00,
2013-09-26 19:12:00,53.0,47.0,30.12,NNE,30,0.0,-999.0,80,-99.99,,,-99.99,,2013-09-26 23:12:00,
2013-09-26 19:53:00,49.0,46.0,30.14,NNE,30,0.0,-999.0,89,-99.99,,,-99.99,,2013-09-26 23:53:00,
2013-09-26 20:22:00,47.0,44.0,30.14,NNE,30,0.0,-999.0,90,-99.99,,,-99.99,,2013-09-27 00:22:00,
2013-09-26 20:43:00,46.0,44.0,30.15,NNE,30,0.0,-999.0,91,-99.99,,,-99.99,,2013-09-27 00:43:00,
2013-09-26 20:52:00,46.0,44.0,30.15,NNE,30,0.0,-999.0,91,-99.99,,,-99.99,,2013-09-27 00:52:00,
2013-09-26 21:12:00,46.0,44.0,30.16,NNE,30,0.0,-999.0,91,-99.99,,,-99.99,,2013-09-27 01:12:00,
2013-09-26 21:23:00,45.0,43.0,30.16,NNE,30,1.0,-999.0,91,-99.99,,,-99.99,,2013-09-27 01:23:00,
2013-09-26 21:42:00,45.0,43.0,30.17,NNE,30,1.0,-999.0,92,-99.99,,,-99.99,,2013-09-27 01:42:00,
2013-09-26 21:52:00,44.0,42.0,30.17,NNE,30,0.0,-999.0,92,-99.99,,,-99.99,,2013-09-27 01:52:00,
2013-09-26 22:12:00,44.0,42.0,30.17,NNE,30,0.0,-999.0,92,-99.99,,,-99.99,,2013-09-27 02:12:00,
2013-09-26 22:22:00,44.0,42.0,30.17,NNE,30,0.0,-999.0,92,-99.99,,,-99.99,,2013-09-27 02:22:00,
2013-09-26 22:43:00,44.0,42.0,30.17,NNE,30,0.0,-999.0,93,-99.99,,,-99.99,,2013-09-27 02:43:00,
2013-09-26 22:53:00,45.0,43.0,30.17,NNE,30,0.0,-999.0,94,-99.99,,,-99.99,,2013-09-27 02:53:00,
2013-09-26 23:12:00,46.0,44.0,30.17,East,87,0.0,-999.0,93,-99.99,,,-99.99,,2013-09-27 03:12:00,
2013-09-26 23:22:00,48.0,46.0,30.17,WSW,256,1.0,-999.0,93,-99.99,,,-99.99,,2013-09-27 03:22:00,
2013-09-26 23:44:00,48.0,45.0,30.18,WNW,302,2.0,-999.0,90,-99.99,,,-99.99,,2013-09-27 03:44:00,
2013-09-26 23:55:00,48.0,45.0,30.18,NW,318,2.0,-999.0,88,-99.99,,,-99.99,,2013-09-27 03:55:00,